Time;durP1;ratioP1;P1;durP2;ratioP2;P2;SDS_P1;SDS_P2;PMS_P1;PMS_P2;Temp;Humidity;BMP_temperature;BMP_pressure;BME280_temperature;BME280_humidity;BME280_pressure;Samples;Min_cycle;Max_cycle;Signal;HPM_P1;HPM_P2
2022/12/27 03:48:25;;;;;;;0.93;0.10;;;9.30;90.40;;;;;;4942251;23;87863;-71
2022/12/27 03:51:03;;;;;;;2.72;0.10;;;9.20;90.40;;;;;;4896762;28;86730;-71
2022/12/27 03:53:39;;;;;;;2.58;0.20;;;9.20;91.00;;;;;;4891385;28;86585;-71
2022/12/27 03:56:06;;;;;;;1.70;0.10;;;9.20;91.30;;;;;;4902015;28;86943;-71
2022/12/27 03:58:33;;;;;;;2.35;0.15;;;9.20;91.80;;;;;;4899496;28;86638;-71
2022/12/27 04:00:59;;;;;;;1.73;0.10;;;9.20;92.00;;;;;;4895839;28;88172;-71
2022/12/27 04:03:24;;;;;;;2.45;0.10;;;9.20;92.00;;;;;;4902873;28;86911;-71
2022/12/27 04:05:50;;;;;;;2.72;0.20;;;9.30;92.10;;;;;;4893833;28;86915;-70
2022/12/27 04:35:37;;;;;;;1.88;0.10;;;8.80;94.70;;;;;;4897371;28;86708;-71
2022/12/27 04:38:03;;;;;;;2.50;0.20;;;8.80;94.90;;;;;;4901558;28;88586;-71
2022/12/27 04:57:12;;;;;;;3.95;0.10;;;8.50;94.80;;;;;;4876472;28;86960;-72
2022/12/27 05:02:22;;;;;;;2.10;0.52;;;8.60;95.00;;;;;;4867215;28;86596;-72
2022/12/27 05:04:48;;;;;;;3.28;0.20;;;8.50;95.10;;;;;;4880933;28;87767;-72
2022/12/27 05:15:30;;;;;;;2.03;0.10;;;8.20;93.50;;;;;;4894533;28;86854;-71
2022/12/27 05:17:56;;;;;;;2.50;0.10;;;8.20;94.00;;;;;;4876835;28;87202;-71
2022/12/27 05:20:22;;;;;;;2.05;0.10;;;8.10;93.90;;;;;;4879129;28;87332;-71
2022/12/27 05:25:37;;;;;;;1.67;0.00;;;7.90;94.20;;;;;;4880135;28;87088;-71
2022/12/27 05:28:05;;;;;;;1.25;0.10;;;7.90;92.90;;;;;;4881406;28;86213;-71
2022/12/27 05:30:35;;;;;;;3.25;0.08;;;7.90;93.30;;;;;;4879686;28;87952;-71
2022/12/27 05:33:02;;;;;;;1.42;0.00;;;7.90;93.20;;;;;;4870123;28;86458;-72
2022/12/27 05:35:28;;;;;;;2.78;0.05;;;7.90;92.80;;;;;;4882154;28;86989;-72
2022/12/27 05:37:55;;;;;;;0.68;0.00;;;7.90;92.90;;;;;;4876157;28;88052;-71
2022/12/27 05:40:22;;;;;;;1.33;0.08;;;7.90;92.60;;;;;;4873448;28;86947;-72
2022/12/27 05:42:47;;;;;;;1.45;0.10;;;8.00;92.90;;;;;;4876942;28;87138;-72
2022/12/27 05:45:13;;;;;;;1.75;0.00;;;8.00;93.10;;;;;;4872313;28;87976;-72
2022/12/27 05:47:40;;;;;;;2.00;0.10;;;8.10;92.90;;;;;;4873625;28;87726;-72
2022/12/27 05:50:06;;;;;;;0.95;0.00;;;8.10;92.50;;;;;;4872931;28;86569;-71
2022/12/27 05:52:32;;;;;;;3.38;0.00;;;8.10;92.00;;;;;;4875859;28;86658;-71
2022/12/27 05:54:58;;;;;;;1.38;0.10;;;8.10;92.40;;;;;;4871177;28;86526;-71
2022/12/27 05:57:23;;;;;;;1.00;0.20;;;8.10;92.50;;;;;;4881009;28;87073;-71
2022/12/27 05:59:49;;;;;;;1.85;0.10;;;8.10;92.90;;;;;;4879224;28;86369;-71
2022/12/27 06:02:15;;;;;;;2.60;0.10;;;8.10;92.80;;;;;;4869190;28;86191;-72
2022/12/27 06:04:40;;;;;;;2.20;0.10;;;8.10;92.90;;;;;;4873932;28;87410;-71
2022/12/27 06:07:10;;;;;;;4.65;0.20;;;8.10;93.00;;;;;;4878160;28;88323;-72
2022/12/27 06:09:35;;;;;;;1.65;0.10;;;8.00;93.00;;;;;;4878140;28;87407;-71
2022/12/27 06:12:01;;;;;;;1.92;0.20;;;8.10;92.70;;;;;;4875220;28;86770;-72
2022/12/27 06:14:27;;;;;;;2.80;0.10;;;8.00;92.80;;;;;;4877167;28;86783;-72
2022/12/27 06:16:52;;;;;;;3.05;0.20;;;8.00;93.00;;;;;;4879516;28;86731;-69
2022/12/27 06:19:18;;;;;;;3.85;0.10;;;8.10;93.10;;;;;;4868770;28;86436;-69
2022/12/27 06:21:44;;;;;;;1.90;0.20;;;8.10;93.00;;;;;;4872445;28;86377;-70
2022/12/27 06:24:09;;;;;;;4.57;0.00;;;8.20;93.00;;;;;;4864065;28;86589;-70
2022/12/27 06:26:35;;;;;;;1.48;0.10;;;8.20;92.70;;;;;;4871465;28;86332;-69
2022/12/27 06:29:01;;;;;;;1.02;0.10;;;8.20;92.50;;;;;;4869303;28;87076;-70
2022/12/27 06:31:27;;;;;;;3.70;0.15;;;8.20;92.50;;;;;;4872752;28;86382;-72
2022/12/27 06:33:53;;;;;;;1.95;0.10;;;8.20;92.30;;;;;;4866052;28;88161;-69
2022/12/27 06:36:22;;;;;;;1.30;0.13;;;8.10;92.40;;;;;;4865154;28;87098;-69
2022/12/27 06:38:48;;;;;;;0.90;0.10;;;7.90;92.60;;;;;;4865928;28;86535;-70
2022/12/27 06:41:16;;;;;;;2.72;0.10;;;7.80;93.00;;;;;;4868472;28;86567;-71
2022/12/27 06:43:42;;;;;;;2.47;0.10;;;7.70;93.30;;;;;;4867376;28;87452;-70
2022/12/27 06:46:14;;;;;;;1.77;0.10;;;7.60;93.10;;;;;;4871701;28;87442;-70
2022/12/27 06:48:40;;;;;;;1.67;0.10;;;7.60;93.70;;;;;;4873755;28;86814;-70
2022/12/27 06:51:09;;;;;;;1.20;0.13;;;7.50;93.90;;;;;;4867923;28;85531;-70
2022/12/27 06:53:35;;;;;;;1.90;0.10;;;7.50;94.10;;;;;;4874671;28;86844;-70
2022/12/27 06:56:05;;;;;;;2.35;0.10;;;7.50;94.00;;;;;;4873783;28;86899;-70
2022/12/27 06:58:34;;;;;;;4.57;0.10;;;7.60;94.10;;;;;;4870885;28;87666;-70
2022/12/27 07:01:10;;;;;;;3.55;0.28;;;7.60;94.00;;;;;;4872965;28;86821;-70
2022/12/27 07:03:36;;;;;;;1.98;0.17;;;7.60;94.00;;;;;;4874574;28;86717;-70
2022/12/27 07:06:03;;;;;;;4.57;0.10;;;7.70;94.10;;;;;;4881811;28;87023;-70
2022/12/27 07:08:28;;;;;;;2.92;0.10;;;7.70;94.00;;;;;;4882007;28;86325;-71
2022/12/27 07:11:02;;;;;;;3.03;0.10;;;7.70;93.80;;;;;;4868338;28;86541;-71
2022/12/27 07:13:33;;;;;;;0.70;0.10;;;7.80;93.00;;;;;;4866810;28;87524;-71
2022/12/27 07:15:59;;;;;;;1.90;0.10;;;7.80;91.30;;;;;;4871539;28;86170;-71
2022/12/27 07:18:24;;;;;;;1.15;0.10;;;7.90;90.90;;;;;;4870985;28;86478;-71
2022/12/27 07:20:50;;;;;;;0.68;0.00;;;8.00;89.60;;;;;;4863568;28;87055;-71
2022/12/27 07:23:16;;;;;;;3.85;0.10;;;8.10;89.20;;;;;;4870705;28;88206;-71
2022/12/27 07:25:41;;;;;;;0.85;0.08;;;8.10;88.40;;;;;;4865856;28;87156;-72
2022/12/27 07:28:07;;;;;;;0.90;0.00;;;8.20;89.60;;;;;;4877929;28;86306;-72
2022/12/27 07:30:33;;;;;;;2.40;0.20;;;8.20;88.80;;;;;;4871074;28;86976;-72
2022/12/27 07:32:58;;;;;;;0.85;0.00;;;8.30;87.20;;;;;;4876865;28;88519;-72
2022/12/27 07:35:24;;;;;;;2.80;0.20;;;8.30;86.30;;;;;;4863240;28;86584;-72
2022/12/27 07:37:49;;;;;;;1.05;0.10;;;8.30;86.20;;;;;;4873918;28;86324;-72
2022/12/27 07:40:15;;;;;;;3.38;0.05;;;8.40;86.20;;;;;;4874404;28;85691;-72
2022/12/27 07:42:41;;;;;;;1.60;0.10;;;8.40;86.50;;;;;;4874905;28;87135;-72
2022/12/27 07:45:07;;;;;;;1.10;0.10;;;8.40;87.70;;;;;;4868249;28;87011;-71
2022/12/27 07:47:33;;;;;;;1.80;0.10;;;8.50;87.90;;;;;;4874874;28;89057;-70
2022/12/27 07:49:58;;;;;;;2.67;0.20;;;8.60;87.60;;;;;;4866755;28;86881;-70
2022/12/27 07:52:25;;;;;;;1.35;0.10;;;8.60;87.80;;;;;;4871710;28;86704;-71
2022/12/27 07:54:51;;;;;;;0.95;0.00;;;8.70;87.60;;;;;;4876847;28;87716;-71
2022/12/27 07:57:17;;;;;;;1.48;0.10;;;8.60;88.10;;;;;;4878468;28;86829;-71
2022/12/27 07:59:42;;;;;;;1.00;0.10;;;8.70;88.40;;;;;;4867209;28;86293;-71
2022/12/27 08:02:09;;;;;;;2.28;0.10;;;8.70;87.60;;;;;;4873471;28;86713;-72
2022/12/27 08:04:37;;;;;;;0.60;0.05;;;8.80;86.90;;;;;;4875897;28;86444;-72
2022/12/27 08:07:11;;;;;;;0.60;0.10;;;8.80;86.30;;;;;;4870335;28;86508;-72
2022/12/27 08:09:39;;;;;;;1.17;0.30;;;8.80;84.80;;;;;;4878042;28;86437;-71
2022/12/27 08:12:05;;;;;;;2.45;0.10;;;8.80;85.30;;;;;;4880322;28;88236;-71
2022/12/27 08:14:31;;;;;;;2.03;0.03;;;8.80;85.80;;;;;;4876311;28;87820;-71
2022/12/27 08:17:24;;;;;;;1.10;0.10;;;8.90;86.00;;;;;;4876047;28;86783;-71
2022/12/27 08:19:54;;;;;;;1.67;0.10;;;8.90;86.80;;;;;;4861227;28;87199;-71
2022/12/27 08:22:21;;;;;;;0.77;0.10;;;9.00;87.00;;;;;;4872145;28;86571;-71
2022/12/27 08:24:47;;;;;;;1.00;0.10;;;9.10;86.50;;;;;;4877538;28;86787;-70
2022/12/27 08:27:20;;;;;;;3.15;0.17;;;9.00;87.30;;;;;;4875580;28;86331;-70
2022/12/27 08:29:47;;;;;;;1.77;0.20;;;9.00;87.20;;;;;;4871380;28;86087;-70
2022/12/27 08:32:12;;;;;;;2.20;0.15;;;8.90;88.30;;;;;;4878743;28;86604;-71
2022/12/27 08:34:38;;;;;;;2.75;0.10;;;8.90;88.10;;;;;;4879290;28;87200;-71
2022/12/27 08:37:04;;;;;;;1.33;0.20;;;8.90;87.00;;;;;;4877247;28;87338;-72
2022/12/27 08:39:30;;;;;;;2.33;0.28;;;8.80;86.20;;;;;;4873277;28;86985;-73
2022/12/27 08:41:55;;;;;;;0.82;0.10;;;8.80;86.60;;;;;;4873415;28;86539;-71
2022/12/27 08:44:22;;;;;;;1.25;0.10;;;8.80;86.00;;;;;;4875647;28;86812;-71
2022/12/27 08:46:48;;;;;;;2.85;0.13;;;8.80;87.70;;;;;;4870523;28;86579;-71
2022/12/27 08:49:14;;;;;;;1.45;0.10;;;8.80;86.20;;;;;;4874968;28;86898;-72
2022/12/27 08:51:39;;;;;;;2.33;0.20;;;8.70;86.20;;;;;;4878393;28;87003;-72
2022/12/27 08:54:05;;;;;;;1.17;0.10;;;8.70;86.00;;;;;;4875448;28;86222;-72
2022/12/27 08:56:30;;;;;;;1.50;0.10;;;8.80;86.40;;;;;;4875409;28;86891;-72
2022/12/27 08:58:56;;;;;;;2.40;0.20;;;8.80;87.00;;;;;;4877175;28;87083;-72
2022/12/27 09:01:24;;;;;;;1.80;0.20;;;8.70;85.60;;;;;;4874895;28;88039;-72
2022/12/27 09:03:50;;;;;;;1.27;0.10;;;8.70;87.00;;;;;;4878478;28;87960;-72
2022/12/27 09:06:18;;;;;;;2.53;0.13;;;8.70;86.40;;;;;;4880201;28;86870;-72
2022/12/27 09:08:46;;;;;;;1.60;0.05;;;8.70;86.90;;;;;;4881093;28;86383;-72
2022/12/27 09:11:16;;;;;;;3.78;0.40;;;8.70;87.20;;;;;;4881336;28;87009;-72
2022/12/27 09:13:42;;;;;;;2.63;0.10;;;8.90;87.10;;;;;;4879586;28;87823;-71
2022/12/27 09:16:11;;;;;;;2.33;0.45;;;9.00;86.80;;;;;;4881097;28;86253;-72
2022/12/27 09:18:37;;;;;;;2.90;0.20;;;9.10;86.70;;;;;;4880738;28;85931;-71
2022/12/27 09:21:11;;;;;;;1.33;0.10;;;9.10;85.80;;;;;;4880612;28;86978;-72
2022/12/27 09:23:37;;;;;;;1.23;0.15;;;9.20;85.70;;;;;;4881474;28;86764;-72
2022/12/27 09:26:11;;;;;;;3.60;0.20;;;9.20;83.90;;;;;;4880575;28;88082;-71
2022/12/27 09:28:37;;;;;;;1.90;0.30;;;9.10;85.40;;;;;;4873399;28;87759;-72
2022/12/27 09:31:04;;;;;;;1.52;0.10;;;9.00;84.90;;;;;;4876811;28;86682;-72
2022/12/27 09:33:31;;;;;;;1.77;0.10;;;8.90;84.90;;;;;;4881447;28;86929;-72
2022/12/27 09:36:04;;;;;;;1.13;0.10;;;8.90;85.60;;;;;;4878214;28;86711;-72
2022/12/27 09:38:30;;;;;;;1.92;0.20;;;9.00;85.40;;;;;;4875537;28;86316;-72
2022/12/27 09:40:59;;;;;;;1.70;0.10;;;9.00;85.40;;;;;;4878643;28;86922;-72
2022/12/27 09:44:11;;;;;;;3.75;0.10;;;9.00;85.50;;;;;;4879282;28;86156;-72
2022/12/27 09:46:44;;;;;;;2.85;0.52;;;9.10;86.00;;;;;;4846587;29;87015;-72
2022/12/27 09:49:14;;;;;;;1.45;0.47;;;9.00;86.40;;;;;;4847087;29;86865;-72
2022/12/27 09:51:51;;;;;;;2.22;0.30;;;9.10;86.80;;;;;;4855805;28;88085;-74
2022/12/27 09:54:55;;;;;;;2.08;0.32;;;9.10;86.40;;;;;;4878509;28;87989;-71
2022/12/27 09:57:31;;;;;;;2.47;0.40;;;9.10;87.00;;;;;;4860301;28;86609;-71
2022/12/27 10:00:04;;;;;;;3.60;0.40;;;9.20;86.90;;;;;;4867675;28;86824;-71
2022/12/27 10:02:32;;;;;;;3.50;0.22;;;9.20;85.80;;;;;;4874532;28;86782;-71
2022/12/27 10:04:58;;;;;;;1.98;0.20;;;9.20;85.30;;;;;;4854976;28;86982;-71
2022/12/27 10:08:11;;;;;;;3.08;0.38;;;9.30;86.20;;;;;;4873298;28;86666;-71
2022/12/27 10:10:39;;;;;;;1.95;0.20;;;9.30;85.30;;;;;;4860769;28;85585;-71
2022/12/27 10:13:11;;;;;;;2.03;0.10;;;9.40;85.00;;;;;;4864017;28;87745;-71
2022/12/27 10:16:12;;;;;;;2.75;0.30;;;9.50;83.90;;;;;;4867977;28;88476;-72
2022/12/27 10:18:44;;;;;;;1.10;0.20;;;9.50;84.50;;;;;;4833701;28;87370;-72
2022/12/27 10:21:23;;;;;;;2.70;0.20;;;9.50;83.90;;;;;;4870748;28;87387;-72
2022/12/27 10:24:04;;;;;;;2.03;0.20;;;9.60;83.50;;;;;;4877425;28;87267;-72
2022/12/27 10:26:30;;;;;;;2.22;0.30;;;9.60;83.40;;;;;;4864593;28;86476;-72
2022/12/27 10:29:00;;;;;;;1.88;0.30;;;9.60;83.40;;;;;;4865060;28;86402;-72
2022/12/27 10:31:26;;;;;;;2.45;0.30;;;9.70;83.90;;;;;;4860222;28;86726;-72
2022/12/27 10:33:53;;;;;;;2.70;0.40;;;9.70;81.70;;;;;;4869791;28;87777;-72
2022/12/27 10:36:22;;;;;;;2.38;0.40;;;9.70;83.00;;;;;;4863094;28;86902;-72
2022/12/27 10:38:48;;;;;;;2.25;0.20;;;9.70;83.90;;;;;;4869544;28;86299;-72
2022/12/27 10:41:39;;;;;;;2.03;0.30;;;9.70;82.40;;;;;;4874371;28;86698;-72
2022/12/27 10:44:10;;;;;;;3.55;0.40;;;9.90;82.00;;;;;;4870561;28;88381;-72
2022/12/27 10:46:37;;;;;;;1.17;0.20;;;9.90;82.20;;;;;;4869753;28;87513;-72
2022/12/27 10:49:07;;;;;;;3.53;0.30;;;9.90;82.70;;;;;;4873631;28;86713;-72
2022/12/27 10:51:39;;;;;;;2.95;0.32;;;9.90;82.50;;;;;;4872408;28;86714;-72
2022/12/27 10:54:15;;;;;;;2.88;0.30;;;9.80;82.40;;;;;;4864395;28;88469;-71
2022/12/27 10:56:43;;;;;;;2.78;0.40;;;9.90;82.40;;;;;;4872916;28;87248;-72
2022/12/27 10:59:15;;;;;;;2.70;0.30;;;9.90;83.10;;;;;;4862921;28;86985;-72
2022/12/27 11:01:42;;;;;;;3.45;0.43;;;10.00;83.30;;;;;;4873066;28;85819;-72
2022/12/27 11:04:22;;;;;;;2.10;0.28;;;10.10;82.40;;;;;;4871059;28;86702;-73
2022/12/27 11:07:01;;;;;;;3.05;0.20;;;10.10;83.70;;;;;;4868598;28;87016;-72
2022/12/27 11:09:32;;;;;;;2.20;0.28;;;10.20;83.00;;;;;;4869464;28;88103;-72
2022/12/27 11:12:16;;;;;;;1.92;0.40;;;10.20;82.10;;;;;;4864932;28;87503;-72
2022/12/27 11:14:55;;;;;;;2.70;0.20;;;10.40;82.60;;;;;;4871412;28;88019;-73
2022/12/27 11:17:36;;;;;;;1.98;0.30;;;10.50;82.60;;;;;;4867086;28;87029;-72
2022/12/27 11:20:17;;;;;;;2.47;0.20;;;10.50;81.90;;;;;;4870377;28;86292;-72
2022/12/27 11:22:45;;;;;;;2.10;0.30;;;10.60;82.10;;;;;;4868170;28;86744;-72
2022/12/27 11:25:14;;;;;;;2.70;0.30;;;10.70;80.50;;;;;;4877583;28;87352;-72
2022/12/27 11:27:44;;;;;;;1.98;0.20;;;10.80;81.50;;;;;;4866635;28;87242;-72
2022/12/27 11:30:22;;;;;;;2.70;0.20;;;10.90;80.30;;;;;;4867586;28;86956;-72
2022/12/27 11:32:48;;;;;;;1.50;0.30;;;11.10;78.80;;;;;;4872257;28;86314;-72
2022/12/27 11:35:20;;;;;;;1.85;0.10;;;11.00;78.40;;;;;;4873688;28;88366;-72
2022/12/27 11:37:47;;;;;;;1.65;0.30;;;10.90;79.90;;;;;;4869119;28;87096;-72
2022/12/27 11:40:33;;;;;;;1.48;0.20;;;10.90;80.20;;;;;;4876238;28;86757;-72
2022/12/27 11:43:24;;;;;;;1.58;0.30;;;11.10;79.90;;;;;;4871789;28;86293;-72
2022/12/27 11:45:50;;;;;;;0.82;0.20;;;11.20;78.70;;;;;;4865218;28;86767;-72
2022/12/27 11:48:24;;;;;;;1.65;0.20;;;11.10;78.10;;;;;;4864319;28;87461;-72
2022/12/27 11:51:15;;;;;;;2.15;0.20;;;11.20;78.10;;;;;;4876992;28;86939;-72
2022/12/27 11:54:08;;;;;;;1.30;0.20;;;11.20;78.90;;;;;;4872918;28;86263;-72
2022/12/27 11:56:36;;;;;;;1.38;0.20;;;11.10;79.00;;;;;;4866075;28;88445;-72
2022/12/27 11:59:27;;;;;;;1.73;0.10;;;11.00;78.40;;;;;;4870184;28;87741;-72
2022/12/27 12:02:17;;;;;;;2.13;0.10;;;10.90;78.10;;;;;;4868244;28;87261;-72
2022/12/27 12:05:21;;;;;;;0.65;0.20;;;10.70;79.10;;;;;;4869233;28;89489;-72
2022/12/27 12:08:03;;;;;;;1.35;0.10;;;10.70;79.70;;;;;;4849170;28;87549;-72
2022/12/27 12:11:12;;;;;;;0.93;0.10;;;10.70;81.20;;;;;;4869921;28;87062;-72
2022/12/27 12:13:47;;;;;;;1.08;0.20;;;10.70;79.20;;;;;;4865811;28;86545;-72
2022/12/27 12:16:43;;;;;;;0.82;0.10;;;10.80;77.80;;;;;;4871735;28;87143;-72
2022/12/27 12:19:37;;;;;;;0.60;0.00;;;10.70;78.50;;;;;;4861172;28;87379;-72
2022/12/27 12:22:32;;;;;;;1.95;0.10;;;10.70;79.10;;;;;;4867620;28;87034;-73
2022/12/27 12:25:22;;;;;;;1.50;0.40;;;10.70;78.70;;;;;;4866646;28;88546;-72
2022/12/27 12:28:22;;;;;;;4.53;0.10;;;10.60;78.20;;;;;;4874558;28;86871;-72
2022/12/27 12:31:18;;;;;;;0.90;0.10;;;10.60;77.60;;;;;;4863652;28;89253;-72
2022/12/27 12:34:14;;;;;;;0.63;0.10;;;10.50;78.00;;;;;;4864893;28;87716;-71
2022/12/27 12:36:47;;;;;;;0.65;0.10;;;10.40;78.80;;;;;;4877159;28;86415;-72
2022/12/27 12:39:31;;;;;;;0.85;0.10;;;10.40;78.40;;;;;;4868286;28;86407;-72
2022/12/27 12:42:07;;;;;;;3.40;0.40;;;10.40;77.50;;;;;;4866486;28;87513;-72
2022/12/27 12:44:54;;;;;;;1.13;0.45;;;10.30;78.30;;;;;;4873068;28;86489;-71
2022/12/27 12:48:00;;;;;;;3.00;0.20;;;10.30;78.30;;;;;;4870782;28;86358;-73
2022/12/27 12:50:58;;;;;;;1.83;0.10;;;10.30;76.80;;;;;;4871637;28;86376;-72
2022/12/27 12:53:42;;;;;;;1.92;0.50;;;10.40;77.60;;;;;;4834048;28;88387;-72
2022/12/27 12:56:40;;;;;;;3.15;0.68;;;10.50;77.50;;;;;;4862241;28;87002;-72
2022/12/27 12:59:33;;;;;;;4.50;1.40;;;10.60;77.30;;;;;;4874510;28;88309;-72
2022/12/27 13:02:32;;;;;;;2.28;0.17;;;10.70;78.00;;;;;;4876493;28;86776;-72
2022/12/27 13:05:23;;;;;;;0.70;0.10;;;11.00;78.20;;;;;;4871005;28;87099;-72
2022/12/27 13:08:01;;;;;;;4.03;1.23;;;11.10;75.40;;;;;;4859444;28;87650;-71
2022/12/27 13:10:58;;;;;;;3.00;0.93;;;11.00;75.90;;;;;;4866106;28;86901;-72
2022/12/27 13:13:45;;;;;;;3.25;0.47;;;11.00;75.40;;;;;;4870907;28;86608;-72
2022/12/27 13:16:26;;;;;;;2.28;0.80;;;10.80;75.90;;;;;;4872650;28;86815;-72
2022/12/27 13:18:54;;;;;;;2.40;0.63;;;10.70;76.50;;;;;;4879402;28;87382;-72
2022/12/27 13:21:42;;;;;;;1.90;0.50;;;10.70;77.00;;;;;;4878450;28;86321;-72
2022/12/27 13:24:13;;;;;;;1.48;0.40;;;10.70;76.90;;;;;;4869946;28;88981;-72
2022/12/27 13:27:08;;;;;;;1.25;0.20;;;10.70;77.10;;;;;;4864601;28;88214;-72
2022/12/27 13:29:58;;;;;;;1.83;0.20;;;10.60;76.90;;;;;;4871097;28;87861;-71
2022/12/27 13:32:34;;;;;;;2.05;0.10;;;10.50;78.30;;;;;;4867244;28;86767;-72
2022/12/27 13:35:21;;;;;;;1.10;0.10;;;10.60;77.50;;;;;;4873947;28;86550;-71
2022/12/27 13:38:34;;;;;;;1.65;0.28;;;10.50;77.60;;;;;;4872659;28;86589;-72
2022/12/27 13:41:27;;;;;;;2.15;0.20;;;10.60;78.60;;;;;;4782790;29;86935;-71
2022/12/27 13:44:31;;;;;;;2.60;1.10;;;10.70;77.20;;;;;;4789920;29;87502;-72
2022/12/27 13:47:24;;;;;;;1.65;0.10;;;10.60;78.00;;;;;;4867631;28;87857;-72
2022/12/27 13:50:31;;;;;;;1.48;0.20;;;10.70;78.50;;;;;;4878030;28;86718;-72
2022/12/27 13:53:34;;;;;;;1.35;0.20;;;10.60;77.20;;;;;;4830016;28;87010;-72
2022/12/27 13:56:18;;;;;;;1.20;0.10;;;10.70;77.30;;;;;;4877632;28;87269;-72
2022/12/27 13:58:44;;;;;;;1.27;0.10;;;10.80;77.90;;;;;;4876855;28;86877;-72
2022/12/27 14:01:18;;;;;;;2.08;0.10;;;10.90;77.00;;;;;;4874660;28;87988;-72
2022/12/27 14:04:21;;;;;;;0.77;0.10;;;10.90;77.50;;;;;;4877948;28;86764;-72
2022/12/27 14:06:56;;;;;;;0.90;0.10;;;10.90;77.40;;;;;;4876250;28;87422;-72
2022/12/27 14:09:56;;;;;;;1.95;0.15;;;10.80;77.40;;;;;;4879418;28;86781;-72
2022/12/27 14:12:36;;;;;;;4.63;1.95;;;10.80;77.50;;;;;;4875001;28;88599;-72
2022/12/27 14:15:05;;;;;;;1.75;0.25;;;10.60;77.30;;;;;;4877493;28;86288;-72
2022/12/27 14:18:21;;;;;;;1.98;0.20;;;10.50;77.50;;;;;;4877951;28;86692;-72
2022/12/27 14:21:11;;;;;;;2.85;0.65;;;10.50;77.30;;;;;;4862359;28;86549;-72
2022/12/27 14:24:15;;;;;;;3.03;0.60;;;10.40;77.20;;;;;;4876748;28;88231;-72
2022/12/27 14:27:32;;;;;;;3.88;0.90;;;10.40;77.50;;;;;;4873260;28;87274;-72
2022/12/27 14:30:20;;;;;;;1.92;0.30;;;10.30;77.70;;;;;;4869480;28;87156;-72
2022/12/27 14:33:16;;;;;;;2.70;0.38;;;10.20;77.60;;;;;;4871227;28;86352;-72
2022/12/27 14:36:06;;;;;;;0.75;0.10;;;10.20;77.80;;;;;;4875882;28;86928;-72
2022/12/27 14:38:47;;;;;;;2.28;0.75;;;10.30;78.30;;;;;;4877258;28;86724;-72
2022/12/27 14:41:31;;;;;;;0.75;0.20;;;10.30;78.80;;;;;;4873285;28;86986;-72
2022/12/27 14:44:11;;;;;;;1.75;0.20;;;10.30;78.30;;;;;;4872711;28;86339;-72
2022/12/27 14:46:52;;;;;;;2.40;0.35;;;10.40;77.70;;;;;;4867814;28;86854;-72
2022/12/27 14:49:23;;;;;;;1.67;0.40;;;10.40;77.40;;;;;;4868188;28;86775;-72
2022/12/27 14:51:54;;;;;;;1.90;0.20;;;10.30;77.40;;;;;;4864186;28;88043;-72
2022/12/27 14:54:50;;;;;;;1.65;0.10;;;10.30;78.50;;;;;;4853566;28;87085;-71
2022/12/27 14:57:52;;;;;;;0.93;0.10;;;10.20;78.80;;;;;;4867743;28;86761;-72
2022/12/27 15:00:19;;;;;;;1.40;0.30;;;10.00;78.80;;;;;;4872401;28;87084;-72
2022/12/27 15:03:15;;;;;;;1.27;0.10;;;9.90;79.90;;;;;;4871162;28;86970;-72
2022/12/27 15:05:57;;;;;;;1.25;0.10;;;9.90;80.00;;;;;;4874587;28;86861;-72
2022/12/27 15:08:41;;;;;;;0.73;0.10;;;9.90;79.70;;;;;;4874260;28;88399;-72
2022/12/27 15:11:18;;;;;;;0.98;0.10;;;9.80;80.40;;;;;;4872756;28;86972;-72
2022/12/27 15:14:19;;;;;;;5.28;0.10;;;9.70;80.40;;;;;;4876946;28;87328;-72
2022/12/27 15:17:06;;;;;;;0.70;0.10;;;9.60;81.10;;;;;;4876193;28;86708;-72
2022/12/27 15:20:07;;;;;;;1.85;0.10;;;9.50;81.30;;;;;;4870797;28;89323;-72
2022/12/27 15:22:46;;;;;;;2.35;0.10;;;9.40;81.70;;;;;;4853535;28;87415;-72
2022/12/27 15:25:12;;;;;;;1.92;0.30;;;9.30;82.20;;;;;;4880416;28;87002;-72
2022/12/27 15:28:09;;;;;;;1.15;0.20;;;9.20;82.40;;;;;;4877982;28;87199;-72
2022/12/27 15:30:44;;;;;;;4.85;0.40;;;9.10;83.10;;;;;;4868586;28;87121;-72
2022/12/27 15:33:22;;;;;;;3.45;0.50;;;9.10;83.50;;;;;;4874505;28;88316;-72
2022/12/27 15:36:14;;;;;;;4.50;1.30;;;9.10;83.60;;;;;;4878715;28;86723;-72
2022/12/27 15:38:49;;;;;;;5.47;1.25;;;9.10;84.20;;;;;;4876157;28;85893;-72
2022/12/27 15:41:22;;;;;;;5.60;0.73;;;9.10;83.70;;;;;;4872458;28;86715;-72
2022/12/27 15:44:15;;;;;;;7.18;1.42;;;9.00;83.80;;;;;;4878129;28;86500;-72
2022/12/27 15:47:01;;;;;;;2.10;0.30;;;8.90;83.90;;;;;;4873447;28;88826;-72
2022/12/27 15:49:27;;;;;;;1.95;0.30;;;8.90;84.10;;;;;;4870703;28;86382;-72
2022/12/27 15:52:14;;;;;;;2.15;0.20;;;8.80;84.30;;;;;;4867516;28;87115;-72
2022/12/27 15:54:53;;;;;;;1.90;0.20;;;8.80;84.90;;;;;;4874853;28;87159;-72
2022/12/27 15:57:36;;;;;;;1.48;0.30;;;8.80;85.00;;;;;;4872155;28;86769;-72
2022/12/27 16:00:22;;;;;;;1.63;0.30;;;8.70;85.10;;;;;;4869391;28;86911;-71
2022/12/27 16:02:48;;;;;;;2.75;0.80;;;8.70;85.90;;;;;;4873474;28;86792;-71
2022/12/27 16:05:19;;;;;;;8.48;2.70;;;8.60;86.50;;;;;;4874582;28;86856;-72
2022/12/27 16:07:57;;;;;;;8.05;2.45;;;8.50;87.50;;;;;;4866787;28;86486;-71
2022/12/27 16:10:44;;;;;;;3.63;0.80;;;8.40;87.40;;;;;;4881224;28;86762;-71
2022/12/27 16:13:10;;;;;;;3.28;0.50;;;8.40;87.80;;;;;;4875584;28;87819;-72
2022/12/27 16:15:49;;;;;;;4.18;1.00;;;8.30;88.80;;;;;;4877239;28;87411;-72
2022/12/27 16:18:18;;;;;;;2.45;0.82;;;8.30;88.50;;;;;;4868171;28;86900;-72
2022/12/27 16:21:04;;;;;;;4.85;0.98;;;8.20;88.70;;;;;;4873572;28;86378;-72
2022/12/27 16:24:01;;;;;;;2.35;0.40;;;8.20;90.50;;;;;;4864003;28;86777;-71
2022/12/27 16:26:30;;;;;;;2.42;0.63;;;8.20;89.60;;;;;;4870477;28;88280;-71
2022/12/27 16:29:03;;;;;;;4.65;1.52;;;8.20;89.70;;;;;;4869176;28;87195;-72
2022/12/27 16:31:31;;;;;;;4.65;1.60;;;8.20;89.90;;;;;;4868124;28;85921;-72
2022/12/27 16:34:09;;;;;;;6.20;1.70;;;8.20;90.00;;;;;;4868553;28;86844;-71
2022/12/27 16:36:42;;;;;;;4.22;1.73;;;8.20;90.00;;;;;;4875336;28;86550;-71
2022/12/27 16:39:10;;;;;;;7.40;1.83;;;8.20;90.00;;;;;;4875265;28;87730;-71
2022/12/27 16:41:54;;;;;;;5.95;2.03;;;8.20;90.00;;;;;;4870628;28;86525;-72
2022/12/27 16:44:23;;;;;;;4.43;1.75;;;8.20;90.30;;;;;;4873293;28;87323;-72
2022/12/27 16:47:24;;;;;;;5.80;1.70;;;8.10;90.20;;;;;;4869664;28;87197;-72
2022/12/27 16:50:04;;;;;;;5.55;1.90;;;8.20;90.20;;;;;;4877488;28;88023;-71
2022/12/27 16:52:55;;;;;;;5.95;2.30;;;8.10;90.30;;;;;;4870704;28;87123;-73
2022/12/27 16:55:46;;;;;;;7.50;2.78;;;8.20;90.40;;;;;;4866889;28;86847;-72
2022/12/27 16:58:35;;;;;;;6.50;2.17;;;8.20;90.60;;;;;;4872724;28;87016;-73
2022/12/27 17:01:20;;;;;;;6.00;2.10;;;8.10;90.50;;;;;;4872987;28;86731;-72
2022/12/27 17:03:48;;;;;;;6.90;1.80;;;8.10;90.60;;;;;;4873080;28;87592;-72
2022/12/27 17:06:14;;;;;;;4.00;1.40;;;8.20;91.60;;;;;;4871943;28;88062;-71
2022/12/27 17:08:39;;;;;;;4.10;0.90;;;8.10;90.90;;;;;;4874698;28;87119;-73
2022/12/27 17:11:26;;;;;;;5.30;1.10;;;8.10;91.10;;;;;;4879263;28;86879;-72
2022/12/27 17:14:25;;;;;;;5.38;1.55;;;8.00;91.20;;;;;;4880026;28;86442;-72
2022/12/27 17:16:56;;;;;;;8.77;2.33;;;8.00;91.20;;;;;;4876386;28;87249;-72
2022/12/27 17:19:36;;;;;;;9.32;3.42;;;7.90;91.30;;;;;;4874772;28;87076;-72
2022/12/27 17:22:05;;;;;;;11.55;4.20;;;7.90;91.50;;;;;;4880924;28;86669;-71
2022/12/27 17:24:31;;;;;;;13.93;4.60;;;7.80;91.60;;;;;;4874583;28;86153;-72
2022/12/27 17:27:27;;;;;;;13.45;5.10;;;7.70;91.70;;;;;;4877575;28;87025;-72
2022/12/27 17:30:17;;;;;;;8.65;3.30;;;7.70;91.80;;;;;;4872517;28;86389;-72
2022/12/27 17:32:43;;;;;;;8.00;3.03;;;7.60;92.00;;;;;;4873269;28;87571;-72
2022/12/27 17:35:39;;;;;;;9.57;2.90;;;7.60;92.00;;;;;;4868622;28;86810;-72
2022/12/27 17:38:29;;;;;;;17.63;5.28;;;7.50;92.30;;;;;;4861367;28;88700;-73
2022/12/27 17:40:57;;;;;;;9.57;4.57;;;7.50;92.80;;;;;;4866977;28;87426;-72
2022/12/27 17:46:50;;;;;;;8.82;3.03;;;7.30;92.70;;;;;;4867746;28;87301;-72
2022/12/27 17:49:16;;;;;;;;;;;7.20;93.00;;;;;;4869568;28;86770;-72
2022/12/27 17:57:52;;;;;;;7.70;4.35;;;7.20;93.20;;;;;;4878279;28;86226;-72
2022/12/27 18:00:05;;;;;;;8.05;2.53;;;7.10;93.60;;;;;;4877722;28;87881;-72
2022/12/27 18:02:37;;;;;;;5.70;2.75;;;7.00;93.80;;;;;;4877741;28;87771;-72
2022/12/27 18:05:13;;;;;;;5.95;1.80;;;7.00;93.90;;;;;;4873144;28;86373;-72
2022/12/27 18:07:40;;;;;;;4.47;2.03;;;7.00;93.90;;;;;;4878104;28;87522;-71
2022/12/27 18:10:26;;;;;;;5.60;2.13;;;7.00;93.90;;;;;;4876783;28;86821;-72
2022/12/27 18:12:55;;;;;;;8.52;3.33;;;7.00;93.70;;;;;;4876810;28;86307;-72
2022/12/27 18:15:25;;;;;;;6.70;2.75;;;7.00;93.80;;;;;;4870266;28;86942;-72
2022/12/27 18:18:05;;;;;;;8.80;3.72;;;7.00;93.90;;;;;;4877865;28;86011;-71
2022/12/27 18:20:39;;;;;;;7.32;3.42;;;7.00;93.90;;;;;;4877004;28;87476;-72
2022/12/27 18:23:05;;;;;;;7.97;1.92;;;6.90;93.80;;;;;;4868029;28;86482;-72
2022/12/27 18:25:49;;;;;;;6.60;2.13;;;6.90;93.80;;;;;;4879042;28;87692;-72
2022/12/27 18:28:18;;;;;;;5.20;1.40;;;6.90;93.80;;;;;;4873108;28;87520;-71
2022/12/27 18:30:59;;;;;;;4.88;1.60;;;6.90;94.10;;;;;;4876906;28;86772;-72
2022/12/27 18:33:38;;;;;;;4.68;1.45;;;6.80;94.30;;;;;;4875901;28;87079;-72
2022/12/27 18:36:06;;;;;;;5.28;1.55;;;6.70;94.50;;;;;;4878344;28;86930;-72